sensor_id;sensor_type;location;lat;lon;timestamp;temperature;humidity
22147;DHT22;13074;48.298;14.424;2023-11-21T02:09:44;7.50;99.90
22147;DHT22;13074;48.298;14.424;2023-11-21T02:12:41;7.40;99.90
22147;DHT22;13074;48.298;14.424;2023-11-21T02:15:15;7.40;99.90
22147;DHT22;13074;48.298;14.424;2023-11-21T02:17:51;7.40;99.90
22147;DHT22;13074;48.298;14.424;2023-11-21T02:20:21;7.30;99.90
22147;DHT22;13074;48.298;14.424;2023-11-21T02:23:09;7.30;99.90
22147;DHT22;13074;48.298;14.424;2023-11-21T02:25:42;7.20;99.90
22147;DHT22;13074;48.298;14.424;2023-11-21T02:28:11;7.10;99.90
22147;DHT22;13074;48.298;14.424;2023-11-21T02:30:42;7.10;99.90
22147;DHT22;13074;48.298;14.424;2023-11-21T02:33:10;7.00;99.90
22147;DHT22;13074;48.298;14.424;2023-11-21T02:35:41;7.00;99.90
22147;DHT22;13074;48.298;14.424;2023-11-21T02:38:12;7.30;99.90
22147;DHT22;13074;48.298;14.424;2023-11-21T02:40:43;7.00;99.90
22147;DHT22;13074;48.298;14.424;2023-11-21T02:43:13;6.90;99.90
22147;DHT22;13074;48.298;14.424;2023-11-21T02:45:41;6.90;99.90
22147;DHT22;13074;48.298;14.424;2023-11-21T02:48:16;6.90;99.90
22147;DHT22;13074;48.298;14.424;2023-11-21T02:50:45;6.90;99.90
22147;DHT22;13074;48.298;14.424;2023-11-21T02:53:15;6.90;99.90
22147;DHT22;13074;48.298;14.424;2023-11-21T02:55:44;7.10;99.90
22147;DHT22;13074;48.298;14.424;2023-11-21T02:58:13;7.20;99.90
22147;DHT22;13074;48.298;14.424;2023-11-21T03:00:44;7.20;99.90
22147;DHT22;13074;48.298;14.424;2023-11-21T03:03:21;7.20;99.90
22147;DHT22;13074;48.298;14.424;2023-11-21T03:05:56;7.20;99.90
22147;DHT22;13074;48.298;14.424;2023-11-21T03:08:29;7.20;99.90
22147;DHT22;13074;48.298;14.424;2023-11-21T03:10:59;7.20;99.90
22147;DHT22;13074;48.298;14.424;2023-11-21T03:13:41;7.20;99.90
22147;DHT22;13074;48.298;14.424;2023-11-21T03:16:44;7.30;99.90
22147;DHT22;13074;48.298;14.424;2023-11-21T03:19:18;7.40;99.90
22147;DHT22;13074;48.298;14.424;2023-11-21T03:21:53;7.50;99.90
22147;DHT22;13074;48.298;14.424;2023-11-21T03:33:32;7.70;99.90
22147;DHT22;13074;48.298;14.424;2023-11-21T03:36:18;7.70;99.90
22147;DHT22;13074;48.298;14.424;2023-11-21T03:38:55;7.60;99.90
22147;DHT22;13074;48.298;14.424;2023-11-21T03:41:24;7.50;99.90
22147;DHT22;13074;48.298;14.424;2023-11-21T03:43:56;7.30;99.90
22147;DHT22;13074;48.298;14.424;2023-11-21T03:46:31;7.20;99.90
22147;DHT22;13074;48.298;14.424;2023-11-21T03:49:00;7.10;99.90
22147;DHT22;13074;48.298;14.424;2023-11-21T03:51:33;7.00;99.90
22147;DHT22;13074;48.298;14.424;2023-11-21T03:54:02;7.00;99.90
22147;DHT22;13074;48.298;14.424;2023-11-21T03:56:30;7.00;99.90
22147;DHT22;13074;48.298;14.424;2023-11-21T03:59:04;7.00;99.90
22147;DHT22;13074;48.298;14.424;2023-11-21T04:01:32;6.90;99.90
22147;DHT22;13074;48.298;14.424;2023-11-21T04:04:03;6.80;99.90
22147;DHT22;13074;48.298;14.424;2023-11-21T04:06:31;6.70;99.90
22147;DHT22;13074;48.298;14.424;2023-11-21T04:08:59;6.60;99.90
22147;DHT22;13074;48.298;14.424;2023-11-21T04:11:27;6.60;99.90
22147;DHT22;13074;48.298;14.424;2023-11-21T04:13:55;6.60;99.90
22147;DHT22;13074;48.298;14.424;2023-11-21T04:21:36;6.50;99.90
22147;DHT22;13074;48.298;14.424;2023-11-21T04:24:06;6.60;99.90
22147;DHT22;13074;48.298;14.424;2023-11-21T04:26:34;6.50;99.90
22147;DHT22;13074;48.298;14.424;2023-11-21T04:29:02;6.50;99.90
22147;DHT22;13074;48.298;14.424;2023-11-21T04:31:30;6.50;99.90
22147;DHT22;13074;48.298;14.424;2023-11-21T04:33:59;6.50;99.90
22147;DHT22;13074;48.298;14.424;2023-11-21T04:39:08;6.40;99.90
22147;DHT22;13074;48.298;14.424;2023-11-21T04:44:11;6.20;99.90
22147;DHT22;13074;48.298;14.424;2023-11-21T04:46:39;6.10;99.90
22147;DHT22;13074;48.298;14.424;2023-11-21T04:49:06;6.10;99.90
22147;DHT22;13074;48.298;14.424;2023-11-21T04:51:36;6.00;99.90
22147;DHT22;13074;48.298;14.424;2023-11-21T04:54:03;5.90;99.90
22147;DHT22;13074;48.298;14.424;2023-11-21T04:56:33;5.90;99.90
22147;DHT22;13074;48.298;14.424;2023-11-21T04:59:00;5.80;99.90
22147;DHT22;13074;48.298;14.424;2023-11-21T05:01:28;5.80;99.90
22147;DHT22;13074;48.298;14.424;2023-11-21T05:03:55;5.80;99.90
22147;DHT22;13074;48.298;14.424;2023-11-21T05:06:25;5.70;99.90
22147;DHT22;13074;48.298;14.424;2023-11-21T05:08:53;5.70;99.90
22147;DHT22;13074;48.298;14.424;2023-11-21T05:11:24;5.70;99.90
22147;DHT22;13074;48.298;14.424;2023-11-21T05:13:54;5.70;99.90
22147;DHT22;13074;48.298;14.424;2023-11-21T05:16:25;5.70;99.90
22147;DHT22;13074;48.298;14.424;2023-11-21T05:18:55;5.70;99.90
22147;DHT22;13074;48.298;14.424;2023-11-21T05:21:27;5.70;99.90
22147;DHT22;13074;48.298;14.424;2023-11-21T05:23:55;5.70;99.90
22147;DHT22;13074;48.298;14.424;2023-11-21T05:26:27;5.70;99.90
22147;DHT22;13074;48.298;14.424;2023-11-21T05:31:33;5.70;99.90
22147;DHT22;13074;48.298;14.424;2023-11-21T05:34:00;5.70;99.90
22147;DHT22;13074;48.298;14.424;2023-11-21T05:36:28;5.70;99.90
22147;DHT22;13074;48.298;14.424;2023-11-21T05:38:55;5.60;99.90
22147;DHT22;13074;48.298;14.424;2023-11-21T05:41:22;5.60;99.90
22147;DHT22;13074;48.298;14.424;2023-11-21T05:43:51;5.50;99.90
22147;DHT22;13074;48.298;14.424;2023-11-21T05:46:20;5.40;99.90
22147;DHT22;13074;48.298;14.424;2023-11-21T05:48:49;5.40;99.90
22147;DHT22;13074;48.298;14.424;2023-11-21T05:51:17;5.40;99.90
22147;DHT22;13074;48.298;14.424;2023-11-21T05:53:45;5.50;99.90
22147;DHT22;13074;48.298;14.424;2023-11-21T05:56:12;5.40;99.90
22147;DHT22;13074;48.298;14.424;2023-11-21T05:58:40;5.50;99.90
22147;DHT22;13074;48.298;14.424;2023-11-21T06:01:08;5.50;99.90
22147;DHT22;13074;48.298;14.424;2023-11-21T06:03:38;5.50;99.90
22147;DHT22;13074;48.298;14.424;2023-11-21T06:06:08;5.60;99.90
22147;DHT22;13074;48.298;14.424;2023-11-21T06:08:35;5.70;99.90
22147;DHT22;13074;48.298;14.424;2023-11-21T06:11:04;5.80;99.90
22147;DHT22;13074;48.298;14.424;2023-11-21T06:13:32;5.80;99.90
22147;DHT22;13074;48.298;14.424;2023-11-21T06:16:02;5.90;99.90
22147;DHT22;13074;48.298;14.424;2023-11-21T06:18:30;5.90;99.90
22147;DHT22;13074;48.298;14.424;2023-11-21T06:20:58;6.00;99.90
22147;DHT22;13074;48.298;14.424;2023-11-21T06:23:28;6.00;99.90
22147;DHT22;13074;48.298;14.424;2023-11-21T06:25:55;6.00;99.90
22147;DHT22;13074;48.298;14.424;2023-11-21T06:28:23;6.00;99.90
22147;DHT22;13074;48.298;14.424;2023-11-21T06:30:51;6.00;99.90
22147;DHT22;13074;48.298;14.424;2023-11-21T06:33:19;6.00;99.90
22147;DHT22;13074;48.298;14.424;2023-11-21T06:35:49;6.00;99.90
22147;DHT22;13074;48.298;14.424;2023-11-21T06:38:16;6.00;99.90
22147;DHT22;13074;48.298;14.424;2023-11-21T06:40:47;6.10;99.90
22147;DHT22;13074;48.298;14.424;2023-11-21T06:43:14;6.10;99.90
22147;DHT22;13074;48.298;14.424;2023-11-21T06:45:43;6.10;99.90
22147;DHT22;13074;48.298;14.424;2023-11-21T06:56:14;6.50;99.90
22147;DHT22;13074;48.298;14.424;2023-11-21T06:58:46;6.60;99.90
22147;DHT22;13074;48.298;14.424;2023-11-21T07:01:14;6.60;99.90
22147;DHT22;13074;48.298;14.424;2023-11-21T07:03:42;6.70;99.90
22147;DHT22;13074;48.298;14.424;2023-11-21T07:06:11;6.70;99.90
22147;DHT22;13074;48.298;14.424;2023-11-21T07:08:41;6.70;99.90
22147;DHT22;13074;48.298;14.424;2023-11-21T07:11:20;6.80;99.90
22147;DHT22;13074;48.298;14.424;2023-11-21T07:13:51;6.80;99.90
22147;DHT22;13074;48.298;14.424;2023-11-21T07:16:19;6.90;99.90
22147;DHT22;13074;48.298;14.424;2023-11-21T07:18:47;6.90;99.90
22147;DHT22;13074;48.298;14.424;2023-11-21T07:21:27;7.00;99.90
22147;DHT22;13074;48.298;14.424;2023-11-21T07:23:56;7.20;99.90
22147;DHT22;13074;48.298;14.424;2023-11-21T07:26:38;7.30;99.90
22147;DHT22;13074;48.298;14.424;2023-11-21T07:29:08;7.50;99.90
22147;DHT22;13074;48.298;14.424;2023-11-21T07:31:42;7.60;99.90
22147;DHT22;13074;48.298;14.424;2023-11-21T07:34:49;7.80;99.90
22147;DHT22;13074;48.298;14.424;2023-11-21T07:38:16;8.00;99.90
22147;DHT22;13074;48.298;14.424;2023-11-21T07:47:20;8.10;99.90
22147;DHT22;13074;48.298;14.424;2023-11-21T07:50:22;8.00;99.90
22147;DHT22;13074;48.298;14.424;2023-11-21T07:53:28;7.90;99.90
22147;DHT22;13074;48.298;14.424;2023-11-21T11:46:22;11.70;99.90
22147;DHT22;13074;48.298;14.424;2023-11-21T11:49:08;11.90;99.90
22147;DHT22;13074;48.298;14.424;2023-11-21T11:51:37;11.90;99.90
22147;DHT22;13074;48.298;14.424;2023-11-21T11:54:05;11.80;99.90
22147;DHT22;13074;48.298;14.424;2023-11-21T11:56:37;11.70;99.90
22147;DHT22;13074;48.298;14.424;2023-11-21T11:59:10;11.80;99.90
22147;DHT22;13074;48.298;14.424;2023-11-21T12:01:45;11.80;99.90
22147;DHT22;13074;48.298;14.424;2023-11-21T12:04:26;11.90;99.90
22147;DHT22;13074;48.298;14.424;2023-11-21T12:06:59;12.00;99.90
22147;DHT22;13074;48.298;14.424;2023-11-21T12:09:29;12.10;99.90
22147;DHT22;13074;48.298;14.424;2023-11-21T12:11:58;12.00;99.90
22147;DHT22;13074;48.298;14.424;2023-11-21T12:14:26;12.00;99.90
22147;DHT22;13074;48.298;14.424;2023-11-21T12:16:57;12.00;99.90
22147;DHT22;13074;48.298;14.424;2023-11-21T12:19:39;11.90;99.90
22147;DHT22;13074;48.298;14.424;2023-11-21T12:22:21;11.80;99.90
22147;DHT22;13074;48.298;14.424;2023-11-21T12:25:04;11.70;99.90
22147;DHT22;13074;48.298;14.424;2023-11-21T12:27:45;11.70;99.90
22147;DHT22;13074;48.298;14.424;2023-11-21T12:30:16;11.80;99.90
22147;DHT22;13074;48.298;14.424;2023-11-21T12:32:49;11.80;99.90
22147;DHT22;13074;48.298;14.424;2023-11-21T12:35:19;11.90;99.90
22147;DHT22;13074;48.298;14.424;2023-11-21T12:37:48;12.00;99.90
22147;DHT22;13074;48.298;14.424;2023-11-21T12:40:16;12.00;99.90
22147;DHT22;13074;48.298;14.424;2023-11-21T12:42:45;12.00;99.90
22147;DHT22;13074;48.298;14.424;2023-11-21T12:45:23;12.10;99.90
22147;DHT22;13074;48.298;14.424;2023-11-21T12:47:55;12.00;99.90
22147;DHT22;13074;48.298;14.424;2023-11-21T12:50:27;12.00;99.90
22147;DHT22;13074;48.298;14.424;2023-11-21T12:53:01;12.00;99.90
22147;DHT22;13074;48.298;14.424;2023-11-21T12:55:30;12.00;99.90
22147;DHT22;13074;48.298;14.424;2023-11-21T12:58:02;12.00;99.90
22147;DHT22;13074;48.298;14.424;2023-11-21T13:00:36;12.00;99.90
22147;DHT22;13074;48.298;14.424;2023-11-21T13:03:08;12.00;99.90
22147;DHT22;13074;48.298;14.424;2023-11-21T13:05:39;11.90;99.90
22147;DHT22;13074;48.298;14.424;2023-11-21T13:08:09;11.90;99.90
22147;DHT22;13074;48.298;14.424;2023-11-21T13:10:39;11.90;99.90
22147;DHT22;13074;48.298;14.424;2023-11-21T13:13:11;11.90;99.90
22147;DHT22;13074;48.298;14.424;2023-11-21T13:15:49;11.80;99.90
22147;DHT22;13074;48.298;14.424;2023-11-21T17:37:14;7.90;99.90
22147;DHT22;13074;48.298;14.424;2023-11-21T17:39:57;7.90;99.90
22147;DHT22;13074;48.298;14.424;2023-11-21T18:05:56;7.30;99.90
22147;DHT22;13074;48.298;14.424;2023-11-21T18:08:27;7.20;99.90
22147;DHT22;13074;48.298;14.424;2023-11-21T18:11:00;7.20;99.90
22147;DHT22;13074;48.298;14.424;2023-11-21T18:13:36;7.20;99.90
22147;DHT22;13074;48.298;14.424;2023-11-21T18:16:04;7.20;99.90
22147;DHT22;13074;48.298;14.424;2023-11-21T18:18:35;7.20;99.90
22147;DHT22;13074;48.298;14.424;2023-11-21T18:21:07;7.20;99.90
22147;DHT22;13074;48.298;14.424;2023-11-21T18:23:40;7.30;99.90
22147;DHT22;13074;48.298;14.424;2023-11-21T18:26:15;7.30;99.90
22147;DHT22;13074;48.298;14.424;2023-11-21T18:28:55;7.40;99.90
22147;DHT22;13074;48.298;14.424;2023-11-21T18:31:27;7.40;99.90
22147;DHT22;13074;48.298;14.424;2023-11-21T18:34:06;7.50;99.90
22147;DHT22;13074;48.298;14.424;2023-11-21T18:37:00;7.60;99.90
22147;DHT22;13074;48.298;14.424;2023-11-21T18:42:21;7.80;99.90
22147;DHT22;13074;48.298;14.424;2023-11-21T18:45:08;7.80;99.90
22147;DHT22;13074;48.298;14.424;2023-11-21T18:47:53;7.60;99.90
22147;DHT22;13074;48.298;14.424;2023-11-21T18:50:33;7.60;99.90
22147;DHT22;13074;48.298;14.424;2023-11-21T18:53:33;7.70;99.90
22147;DHT22;13074;48.298;14.424;2023-11-21T18:56:26;7.80;99.90
22147;DHT22;13074;48.298;14.424;2023-11-21T18:59:13;7.80;99.90
22147;DHT22;13074;48.298;14.424;2023-11-21T19:05:03;7.80;99.90
22147;DHT22;13074;48.298;14.424;2023-11-21T19:07:43;7.80;99.90
22147;DHT22;13074;48.298;14.424;2023-11-21T19:16:49;7.80;99.90
22147;DHT22;13074;48.298;14.424;2023-11-21T19:19:47;7.80;99.90
22147;DHT22;13074;48.298;14.424;2023-11-21T19:22:26;7.80;99.90
22147;DHT22;13074;48.298;14.424;2023-11-21T19:25:31;7.90;99.90
22147;DHT22;13074;48.298;14.424;2023-11-21T19:28:26;7.90;99.90
22147;DHT22;13074;48.298;14.424;2023-11-21T19:31:23;7.90;99.90
22147;DHT22;13074;48.298;14.424;2023-11-21T20:30:02;7.90;99.90
22147;DHT22;13074;48.298;14.424;2023-11-21T20:32:36;7.90;99.90
22147;DHT22;13074;48.298;14.424;2023-11-21T23:27:41;8.00;99.90
22147;DHT22;13074;48.298;14.424;2023-11-21T23:30:29;7.90;99.90
22147;DHT22;13074;48.298;14.424;2023-11-21T23:33:32;8.00;99.90
22147;DHT22;13074;48.298;14.424;2023-11-21T23:36:44;8.00;99.90
